createdAt,value
2023-05-04T00:01:59.314Z,35.10
2023-05-04T00:04:25.723Z,35.03
2023-05-04T00:06:52.143Z,35.14
2023-05-04T00:09:18.493Z,35.15
2023-05-04T00:11:44.856Z,35.31
2023-05-04T00:14:11.186Z,35.31
2023-05-04T00:16:37.536Z,35.14
2023-05-04T00:19:03.960Z,35.36
2023-05-04T00:21:30.291Z,35.28
2023-05-04T00:23:56.608Z,35.34
2023-05-04T00:26:22.981Z,35.16
2023-05-04T00:28:49.672Z,35.14
2023-05-04T00:31:16.053Z,35.45
2023-05-04T00:33:42.476Z,35.25
2023-05-04T00:36:08.795Z,35.52
2023-05-04T00:38:35.099Z,35.42
2023-05-04T00:41:01.476Z,35.58
2023-05-04T00:43:27.882Z,35.37
2023-05-04T00:45:54.254Z,35.62
2023-05-04T00:48:20.605Z,35.53
2023-05-04T00:50:46.938Z,35.51
2023-05-04T00:53:13.496Z,35.55
2023-05-04T00:55:39.857Z,35.70
2023-05-04T00:58:06.197Z,35.71
2023-05-04T01:00:32.508Z,35.82
2023-05-04T01:02:59.500Z,35.79
2023-05-04T01:05:25.888Z,35.73
2023-05-04T01:07:52.257Z,35.69
2023-05-04T01:10:18.638Z,35.63
2023-05-04T01:12:45.012Z,35.77
2023-05-04T01:15:11.394Z,35.90
2023-05-04T01:17:37.808Z,35.72
2023-05-04T01:20:04.450Z,35.79
2023-05-04T01:22:31.018Z,35.80
2023-05-04T01:24:57.389Z,36.28
2023-05-04T01:27:23.730Z,35.93
2023-05-04T01:29:50.062Z,35.91
2023-05-04T01:32:16.413Z,35.91
2023-05-04T01:34:42.741Z,35.81
2023-05-04T01:37:09.049Z,36.16
2023-05-04T01:39:35.806Z,36.14
2023-05-04T01:42:02.114Z,35.79
2023-05-04T01:44:28.458Z,36.27
2023-05-04T01:46:54.812Z,36.04
2023-05-04T01:49:21.652Z,36.25
2023-05-04T01:51:49.486Z,36.15
2023-05-04T01:54:15.906Z,36.00
2023-05-04T01:56:42.213Z,36.30
2023-05-04T01:59:08.595Z,36.04
2023-05-04T02:01:34.978Z,36.01
2023-05-04T02:04:01.630Z,35.99
2023-05-04T02:06:28.069Z,36.30
2023-05-04T02:08:54.425Z,36.17
2023-05-04T02:11:20.762Z,36.32
2023-05-04T02:13:47.218Z,36.33
2023-05-04T02:16:13.649Z,36.65
2023-05-04T02:18:40.025Z,36.72
2023-05-04T02:21:06.401Z,36.39
2023-05-04T02:23:32.776Z,36.69
2023-05-04T02:25:59.078Z,36.72
2023-05-04T02:28:25.408Z,36.82
2023-05-04T02:30:51.800Z,36.92
2023-05-04T02:33:18.127Z,36.71
2023-05-04T02:35:44.462Z,36.81
2023-05-04T02:38:10.805Z,36.95
2023-05-04T02:40:39.354Z,36.90
2023-05-04T02:43:05.679Z,36.96
2023-05-04T02:45:34.314Z,36.98
2023-05-04T02:48:00.731Z,36.91
2023-05-04T02:50:27.076Z,36.78
2023-05-04T02:52:53.436Z,36.65
2023-05-04T02:55:19.902Z,36.71
2023-05-04T02:57:46.306Z,37.04
2023-05-04T03:00:12.681Z,37.04
2023-05-04T03:02:39.097Z,37.05
2023-05-04T03:05:05.630Z,37.07
2023-05-04T03:07:32.004Z,37.17
2023-05-04T03:09:58.381Z,37.27
2023-05-04T03:12:24.707Z,37.25
2023-05-04T03:14:51.116Z,37.11
2023-05-04T03:17:17.468Z,37.24
2023-05-04T03:19:43.834Z,37.32
2023-05-04T03:22:11.097Z,37.25
2023-05-04T03:24:37.435Z,36.86
2023-05-04T03:27:03.877Z,37.24
2023-05-04T03:29:30.360Z,37.24
2023-05-04T03:31:57.319Z,36.97
2023-05-04T03:34:23.702Z,37.08
2023-05-04T03:36:55.769Z,37.22
2023-05-04T03:39:22.189Z,37.12
2023-05-04T03:41:48.587Z,37.34
2023-05-04T03:44:15.142Z,37.32
2023-05-04T03:46:41.646Z,37.38
2023-05-04T03:49:08.194Z,37.28
2023-05-04T03:51:34.713Z,37.43
2023-05-04T03:54:01.107Z,37.04
2023-05-04T03:56:27.453Z,37.23
2023-05-04T03:58:53.929Z,37.46
2023-05-04T04:01:24.902Z,37.34
2023-05-04T04:03:51.374Z,37.46
2023-05-04T04:06:19.612Z,37.15
2023-05-04T04:08:46.053Z,37.43
2023-05-04T04:11:12.484Z,37.77
2023-05-04T04:13:39.018Z,38.43
2023-05-04T04:16:05.518Z,39.21
2023-05-04T04:18:31.877Z,40.03
2023-05-04T04:20:58.487Z,40.73
2023-05-04T04:23:25.057Z,40.79
2023-05-04T04:25:51.619Z,40.54
2023-05-04T04:28:18.233Z,40.42
2023-05-04T04:30:44.643Z,40.01
2023-05-04T04:33:11.178Z,39.78
2023-05-04T04:35:37.749Z,39.84
2023-05-04T04:38:04.389Z,39.45
2023-05-04T04:40:30.841Z,40.17
2023-05-04T04:42:57.375Z,40.14
2023-05-04T04:45:23.855Z,40.11
2023-05-04T04:47:50.329Z,39.95
2023-05-04T04:50:16.900Z,40.23
2023-05-04T04:52:43.331Z,39.55
2023-05-04T04:55:09.776Z,39.43
2023-05-04T04:57:36.292Z,39.04
2023-05-04T05:00:02.924Z,38.43
2023-05-04T05:02:29.435Z,38.32
2023-05-04T05:04:56.022Z,38.48
2023-05-04T05:07:22.515Z,38.22
2023-05-04T05:09:48.978Z,38.00
2023-05-04T05:12:16.077Z,37.58
2023-05-04T05:14:42.554Z,37.11
2023-05-04T05:17:08.971Z,36.34
2023-05-04T05:19:35.431Z,36.09
2023-05-04T05:22:01.952Z,35.74
2023-05-04T05:24:28.416Z,35.34
2023-05-04T05:26:55.004Z,34.98
2023-05-04T05:29:21.395Z,34.49
2023-05-04T05:31:47.829Z,33.97
2023-05-04T05:34:14.271Z,33.79
2023-05-04T05:36:40.701Z,32.58
2023-05-04T05:39:07.104Z,32.67
2023-05-04T05:41:33.598Z,32.56
2023-05-04T05:44:00.067Z,32.65
2023-05-04T05:46:26.517Z,32.42
2023-05-04T05:48:52.948Z,32.04
2023-05-04T05:51:19.318Z,31.60
2023-05-04T05:53:45.657Z,31.05
2023-05-04T05:56:12.058Z,30.83
2023-05-04T05:58:38.468Z,30.73
2023-05-04T06:01:04.829Z,30.56
2023-05-04T06:03:31.317Z,30.09
2023-05-04T06:05:57.803Z,29.97
2023-05-04T06:08:24.268Z,29.63
2023-05-04T06:10:50.782Z,29.51
2023-05-04T06:13:17.215Z,29.47
2023-05-04T06:15:43.597Z,28.96
2023-05-04T06:18:10.116Z,28.84
2023-05-04T06:20:36.525Z,28.54
2023-05-04T06:23:02.934Z,28.67
2023-05-04T06:25:29.314Z,28.58
2023-05-04T06:27:55.709Z,28.31
2023-05-04T06:30:22.068Z,28.09
2023-05-04T06:32:48.517Z,27.89
2023-05-04T06:35:14.932Z,27.97
2023-05-04T06:37:41.363Z,27.90
2023-05-04T06:40:07.836Z,27.84
2023-05-04T06:42:35.643Z,27.51
2023-05-04T06:45:02.018Z,27.12
2023-05-04T06:47:28.462Z,26.84
2023-05-04T06:49:54.849Z,27.16
2023-05-04T06:52:21.192Z,26.95
2023-05-04T06:54:47.618Z,26.83
2023-05-04T06:57:13.969Z,26.40
2023-05-04T06:59:40.310Z,26.80
2023-05-04T07:02:06.701Z,26.82
2023-05-04T07:04:33.122Z,27.16
2023-05-04T07:06:59.476Z,27.08
2023-05-04T07:09:25.893Z,27.03
2023-05-04T07:11:52.366Z,27.22
2023-05-04T07:14:18.724Z,27.71
2023-05-04T07:16:45.214Z,27.67
2023-05-04T07:19:11.634Z,28.28
2023-05-04T07:21:37.990Z,28.21
2023-05-04T07:24:04.427Z,27.94
2023-05-04T07:26:30.812Z,28.39
2023-05-04T07:28:57.169Z,28.80
2023-05-04T07:31:23.594Z,28.61
2023-05-04T07:33:49.957Z,28.15
2023-05-04T07:36:16.306Z,28.53
2023-05-04T07:38:42.724Z,28.74
2023-05-04T07:41:09.065Z,28.35
2023-05-04T07:43:35.410Z,27.59
2023-05-04T07:46:01.871Z,28.28
2023-05-04T07:48:28.274Z,28.00
2023-05-04T07:50:54.746Z,28.19
2023-05-04T07:53:21.216Z,29.23
2023-05-04T07:55:47.599Z,29.68
2023-05-04T07:58:13.982Z,30.00
2023-05-04T08:00:40.395Z,29.78
2023-05-04T08:03:06.824Z,29.72
2023-05-04T08:05:33.216Z,29.91
2023-05-04T08:07:59.638Z,29.99
2023-05-04T08:10:26.027Z,29.58
2023-05-04T08:12:52.590Z,29.51
2023-05-04T08:15:19.087Z,29.49
2023-05-04T08:17:45.625Z,29.28
2023-05-04T08:20:12.030Z,29.11
2023-05-04T08:22:38.510Z,29.02
2023-05-04T08:25:05.151Z,28.68
2023-05-04T08:27:31.688Z,28.19
2023-05-04T08:29:58.148Z,28.52
2023-05-04T08:32:24.551Z,28.37
2023-05-04T08:34:50.924Z,28.09
2023-05-04T08:37:17.333Z,27.65
2023-05-04T08:39:43.686Z,26.97
2023-05-04T08:42:10.102Z,26.67
2023-05-04T08:44:36.513Z,26.96
2023-05-04T08:47:02.882Z,26.93
2023-05-04T08:49:29.258Z,25.47
2023-05-04T08:51:55.707Z,25.89
2023-05-04T08:54:22.085Z,25.55
2023-05-04T08:56:48.457Z,25.61
2023-05-04T08:59:14.870Z,25.57
2023-05-04T09:01:41.278Z,25.32
2023-05-04T09:04:07.704Z,24.93
2023-05-04T09:06:34.123Z,25.42
2023-05-04T09:09:00.474Z,25.31
2023-05-04T09:11:26.839Z,25.28
2023-05-04T09:13:53.250Z,25.38
2023-05-04T09:16:19.657Z,25.28
2023-05-04T09:18:45.997Z,25.11
2023-05-04T09:21:12.439Z,24.94
2023-05-04T09:23:38.885Z,25.29
2023-05-04T09:26:05.398Z,25.15
2023-05-04T09:28:31.816Z,25.43
2023-05-04T09:30:58.213Z,25.12
2023-05-04T09:33:24.645Z,24.88
2023-05-04T09:35:51.022Z,24.40
2023-05-04T09:38:17.369Z,24.44
2023-05-04T09:40:43.728Z,24.47
2023-05-04T09:43:10.137Z,23.87
2023-05-04T09:45:36.510Z,23.09
2023-05-04T09:48:02.924Z,23.50
2023-05-04T09:50:29.484Z,23.64
2023-05-04T09:52:55.944Z,23.38
2023-05-04T09:55:22.360Z,23.52
2023-05-04T09:57:48.776Z,23.55
2023-05-04T10:00:15.155Z,23.70
2023-05-04T10:02:41.593Z,23.52
2023-05-04T10:05:08.179Z,23.71
2023-05-04T10:07:34.776Z,23.39
2023-05-04T10:10:01.205Z,23.06
2023-05-04T10:12:27.776Z,23.06
2023-05-04T10:14:54.180Z,23.10
2023-05-04T10:17:20.530Z,23.19
2023-05-04T10:19:47.073Z,22.86
2023-05-04T10:22:13.455Z,23.10
2023-05-04T10:24:39.787Z,22.48
2023-05-04T10:27:06.288Z,22.84
2023-05-04T10:29:32.668Z,22.96
2023-05-04T10:31:59.139Z,22.75
2023-05-04T10:34:25.641Z,23.16
2023-05-04T10:36:51.987Z,23.09
2023-05-04T10:39:18.319Z,22.41
2023-05-04T10:41:44.807Z,21.71
2023-05-04T10:44:11.176Z,21.90
2023-05-04T10:46:37.564Z,22.90
2023-05-04T10:49:04.052Z,22.44
2023-05-04T10:51:38.776Z,22.90
2023-05-04T10:54:05.477Z,22.84
2023-05-04T10:56:31.828Z,22.61
2023-05-04T10:58:58.191Z,22.80
2023-05-04T11:01:24.777Z,22.89
2023-05-04T11:03:51.132Z,22.79
2023-05-04T11:06:17.554Z,23.18
2023-05-04T11:08:44.054Z,23.30
2023-05-04T11:11:10.432Z,22.92
2023-05-04T11:13:36.795Z,22.42
2023-05-04T11:16:03.234Z,22.76
2023-05-04T11:18:29.629Z,22.19
2023-05-04T11:20:56.004Z,22.47
2023-05-04T11:23:22.395Z,22.41
2023-05-04T11:25:48.770Z,22.56
2023-05-04T11:28:15.160Z,22.59
2023-05-04T11:30:41.588Z,22.50
2023-05-04T11:33:08.034Z,22.89
2023-05-04T11:35:34.508Z,22.25
2023-05-04T11:38:00.932Z,22.62
2023-05-04T11:40:27.307Z,22.38
2023-05-04T11:42:55.396Z,22.72
2023-05-04T11:45:23.174Z,22.87
2023-05-04T11:47:49.596Z,23.16
2023-05-04T11:50:16.032Z,23.16
2023-05-04T11:52:42.477Z,23.60
2023-05-04T11:55:09.243Z,23.43
2023-05-04T11:57:35.703Z,24.08
2023-05-04T12:00:02.166Z,23.69
2023-05-04T12:02:30.956Z,24.02
2023-05-04T12:04:57.319Z,24.58
2023-05-04T12:07:23.715Z,24.07
2023-05-04T12:09:50.111Z,23.49
2023-05-04T12:12:16.481Z,23.55
2023-05-04T12:14:42.881Z,23.17
2023-05-04T12:17:09.236Z,23.11
2023-05-04T12:19:35.618Z,22.70
2023-05-04T12:22:02.018Z,22.58
2023-05-04T12:24:28.388Z,21.88
2023-05-04T12:26:54.771Z,22.76
2023-05-04T12:29:21.712Z,22.39
2023-05-04T12:31:48.178Z,21.79
2023-05-04T12:34:14.591Z,22.08
2023-05-04T12:36:40.981Z,21.98
2023-05-04T12:39:07.334Z,22.52
2023-05-04T12:41:33.791Z,22.72
2023-05-04T12:44:00.191Z,22.57
2023-05-04T12:46:26.597Z,20.84
2023-05-04T12:48:53.003Z,21.54
2023-05-04T12:51:19.462Z,21.55
2023-05-04T12:53:45.808Z,22.10
2023-05-04T12:56:12.162Z,22.67
2023-05-04T12:58:38.552Z,22.83
2023-05-04T13:01:04.922Z,23.16
2023-05-04T13:03:31.410Z,23.24
2023-05-04T13:05:57.933Z,22.93
2023-05-04T13:08:24.315Z,22.93
2023-05-04T13:10:50.683Z,22.67
2023-05-04T13:13:17.191Z,22.92
2023-05-04T13:15:43.644Z,23.37
2023-05-04T13:18:10.014Z,23.56
2023-05-04T13:20:36.548Z,23.41
2023-05-04T13:23:02.909Z,23.43
2023-05-04T13:25:29.315Z,22.49
2023-05-04T13:27:55.768Z,22.70
2023-05-04T13:30:22.142Z,23.02
2023-05-04T13:32:48.664Z,23.01
2023-05-04T13:35:15.167Z,23.05
2023-05-04T13:37:41.523Z,23.07
2023-05-04T13:40:07.878Z,23.03
2023-05-04T13:42:36.911Z,22.96
2023-05-04T13:45:03.797Z,22.77
2023-05-04T13:47:30.306Z,22.84
2023-05-04T13:49:56.681Z,23.14
2023-05-04T13:52:22.991Z,22.90
2023-05-04T13:54:49.313Z,22.91
2023-05-04T13:57:15.688Z,23.06
2023-05-04T13:59:46.511Z,23.38
2023-05-04T14:02:21.266Z,23.43
2023-05-04T14:04:47.695Z,23.00
2023-05-04T14:07:14.032Z,22.79
2023-05-04T14:09:40.391Z,22.84
2023-05-04T14:12:06.712Z,23.12
2023-05-04T14:14:33.061Z,22.97
2023-05-04T14:16:59.435Z,22.64
2023-05-04T14:19:25.915Z,22.78
2023-05-04T14:21:52.303Z,22.87
2023-05-04T14:24:18.762Z,22.51
2023-05-04T14:26:45.220Z,22.81
2023-05-04T14:29:11.584Z,22.95
2023-05-04T14:31:37.962Z,22.62
2023-05-04T14:34:04.304Z,22.86
2023-05-04T14:36:30.602Z,22.51
2023-05-04T14:38:57.030Z,22.38
2023-05-04T14:41:23.372Z,22.38
2023-05-04T14:43:49.680Z,22.21
2023-05-04T14:46:16.092Z,22.51
2023-05-04T14:48:42.498Z,22.61
2023-05-04T14:51:08.867Z,22.29
2023-05-04T14:53:37.078Z,22.48
2023-05-04T14:56:04.980Z,22.88
2023-05-04T14:58:31.289Z,22.68
2023-05-04T15:00:57.648Z,22.63
2023-05-04T15:03:24.069Z,22.79
2023-05-04T15:05:50.443Z,22.67
2023-05-04T15:08:16.799Z,22.81
2023-05-04T15:10:43.146Z,22.66
2023-05-04T15:13:09.575Z,22.74
2023-05-04T15:15:36.001Z,22.59
2023-05-04T15:18:02.385Z,22.87
2023-05-04T15:20:28.761Z,22.56
2023-05-04T15:22:55.138Z,22.66
2023-05-04T15:25:21.496Z,22.26
2023-05-04T15:27:47.808Z,22.27
2023-05-04T15:30:14.321Z,22.32
2023-05-04T15:32:40.706Z,22.28
2023-05-04T15:35:07.141Z,21.95
2023-05-04T15:37:33.706Z,22.07
2023-05-04T15:40:02.284Z,21.90
2023-05-04T15:42:29.053Z,22.27
2023-05-04T15:44:55.484Z,22.08
2023-05-04T15:47:21.823Z,22.47
2023-05-04T15:49:48.151Z,22.43
2023-05-04T15:52:14.600Z,22.25
2023-05-04T15:54:40.922Z,22.43
2023-05-04T15:57:07.243Z,22.37
2023-05-04T15:59:33.605Z,22.25
2023-05-04T16:01:59.916Z,21.69
2023-05-04T16:04:26.231Z,22.10
2023-05-04T16:06:52.593Z,22.00
2023-05-04T16:09:18.977Z,22.33
2023-05-04T16:11:45.312Z,22.24
2023-05-04T16:14:11.671Z,22.10
2023-05-04T16:16:38.027Z,22.29
2023-05-04T16:19:04.349Z,21.92
2023-05-04T16:21:30.777Z,22.05
2023-05-04T16:23:57.171Z,22.18
2023-05-04T16:26:23.487Z,22.18
2023-05-04T16:28:49.857Z,22.24
2023-05-04T16:31:16.229Z,22.29
2023-05-04T16:33:42.612Z,22.02
2023-05-04T16:36:08.968Z,21.98
2023-05-04T16:38:35.293Z,22.31
2023-05-04T16:41:01.604Z,22.41
2023-05-04T16:43:27.980Z,22.18
2023-05-04T16:45:54.357Z,22.07
2023-05-04T16:48:20.699Z,22.11
2023-05-04T16:50:47.075Z,22.50
2023-05-04T16:53:13.385Z,22.11
2023-05-04T16:55:39.691Z,22.53
2023-05-04T16:58:06.065Z,22.45
2023-05-04T17:00:32.370Z,22.56
2023-05-04T17:02:58.743Z,22.39
2023-05-04T17:05:25.246Z,22.44
2023-05-04T17:07:51.554Z,22.65
2023-05-04T17:10:17.900Z,22.70
2023-05-04T17:12:44.441Z,22.66
2023-05-04T17:15:10.808Z,22.76
2023-05-04T17:17:37.151Z,22.54
2023-05-04T17:20:03.573Z,22.42
2023-05-04T17:22:29.940Z,22.73
2023-05-04T17:24:56.246Z,22.70
2023-05-04T17:27:22.622Z,22.39
2023-05-04T17:29:48.955Z,22.65
2023-05-04T17:32:15.416Z,22.85
2023-05-04T17:34:41.800Z,22.52
2023-05-04T17:37:08.121Z,22.95
2023-05-04T17:39:34.591Z,22.92
2023-05-04T17:42:01.006Z,22.47
2023-05-04T17:44:27.321Z,22.96
2023-05-04T17:46:53.635Z,22.67
2023-05-04T17:49:20.024Z,22.75
2023-05-04T17:51:46.328Z,22.84
2023-05-04T17:54:12.657Z,23.06
2023-05-04T17:56:39.022Z,22.96
2023-05-04T17:59:05.334Z,23.10
2023-05-04T18:01:31.664Z,23.10
2023-05-04T18:03:58.162Z,23.05
2023-05-04T18:06:24.506Z,23.25
2023-05-04T18:08:50.838Z,23.04
2023-05-04T18:11:17.313Z,23.15
2023-05-04T18:13:43.653Z,23.18
2023-05-04T18:16:09.993Z,23.16
2023-05-04T18:18:36.409Z,23.18
2023-05-04T18:21:02.719Z,23.52
2023-05-04T18:23:29.033Z,23.34
2023-05-04T18:25:55.404Z,23.33
2023-05-04T18:28:21.729Z,23.40
2023-05-04T18:30:48.130Z,23.81
2023-05-04T18:33:14.503Z,23.54
2023-05-04T18:35:40.817Z,23.57
2023-05-04T18:38:07.156Z,23.62
2023-05-04T18:40:33.535Z,23.83
2023-05-04T18:42:59.892Z,24.24
2023-05-04T18:45:26.261Z,24.02
2023-05-04T18:47:52.652Z,23.80
2023-05-04T18:50:18.991Z,23.83
2023-05-04T18:52:45.307Z,24.23
2023-05-04T18:55:11.710Z,23.92
2023-05-04T18:57:38.077Z,24.26
2023-05-04T19:00:04.450Z,24.40
2023-05-04T19:02:30.921Z,24.34
2023-05-04T19:04:57.264Z,24.69
2023-05-04T19:07:23.598Z,24.28
2023-05-04T19:09:49.991Z,24.47
2023-05-04T19:12:16.306Z,24.51
2023-05-04T19:14:42.629Z,24.67
2023-05-04T19:17:09.054Z,24.92
2023-05-04T19:19:35.412Z,24.56
2023-05-04T19:22:01.721Z,24.64
2023-05-04T19:24:28.208Z,25.08
2023-05-04T19:26:54.491Z,24.77
2023-05-04T19:29:20.827Z,25.13
2023-05-04T19:31:47.343Z,25.17
2023-05-04T19:34:15.554Z,25.16
2023-05-04T19:36:43.212Z,25.31
2023-05-04T19:39:09.566Z,25.18
2023-05-04T19:41:35.898Z,25.48
2023-05-04T19:44:02.270Z,25.24
2023-05-04T19:46:28.694Z,25.12
2023-05-04T19:48:55.025Z,25.35
2023-05-04T19:51:21.407Z,25.55
2023-05-04T19:53:47.866Z,25.51
2023-05-04T19:56:14.188Z,25.57
2023-05-04T19:58:40.511Z,25.80
2023-05-04T20:01:06.908Z,26.08
2023-05-04T20:03:33.266Z,26.08
2023-05-04T20:05:59.601Z,25.47
2023-05-04T20:08:25.982Z,25.73
2023-05-04T20:10:52.335Z,25.98
2023-05-04T20:13:18.670Z,26.02
2023-05-04T20:15:45.076Z,26.13
2023-05-04T20:18:11.405Z,26.19
2023-05-04T20:20:37.712Z,26.02
2023-05-04T20:23:04.081Z,26.09
2023-05-04T20:25:30.418Z,26.18
2023-05-04T20:27:56.743Z,26.05
2023-05-04T20:30:23.114Z,26.26
2023-05-04T20:32:49.489Z,26.28
2023-05-04T20:35:15.812Z,26.38
2023-05-04T20:37:42.196Z,26.46
2023-05-04T20:40:08.638Z,26.41
2023-05-04T20:42:35.124Z,26.46
2023-05-04T20:45:01.589Z,26.52
2023-05-04T20:47:27.973Z,26.63
2023-05-04T20:49:54.328Z,26.72
2023-05-04T20:52:20.697Z,26.63
2023-05-04T20:54:47.014Z,26.92
2023-05-04T20:57:13.445Z,26.75
2023-05-04T20:59:39.885Z,26.79
2023-05-04T21:02:06.208Z,26.95
2023-05-04T21:04:32.529Z,27.20
2023-05-04T21:06:59.105Z,27.17
2023-05-04T21:09:25.524Z,26.91
2023-05-04T21:11:51.945Z,27.29
2023-05-04T21:14:18.347Z,27.26
2023-05-04T21:16:44.664Z,27.42
2023-05-04T21:19:11.022Z,27.64
2023-05-04T21:21:37.410Z,27.53
2023-05-04T21:24:03.715Z,27.56
2023-05-04T21:26:30.055Z,27.50
2023-05-04T21:28:56.602Z,27.86
2023-05-04T21:31:23.061Z,27.81
2023-05-04T21:33:49.408Z,27.98
2023-05-04T21:36:15.773Z,27.95
2023-05-04T21:38:42.104Z,28.19
2023-05-04T21:41:08.476Z,28.21
2023-05-04T21:43:34.852Z,28.39
2023-05-04T21:46:01.183Z,28.38
2023-05-04T21:48:27.494Z,28.75
2023-05-04T21:50:53.865Z,28.73
2023-05-04T21:53:20.190Z,28.61
2023-05-04T21:55:46.543Z,28.32
2023-05-04T21:58:12.923Z,28.44
2023-05-04T22:00:39.251Z,28.63
2023-05-04T22:03:05.788Z,28.67
2023-05-04T22:05:32.306Z,28.59
2023-05-04T22:07:58.625Z,28.66
2023-05-04T22:10:24.963Z,28.78
2023-05-04T22:12:51.344Z,28.85
2023-05-04T22:15:17.684Z,28.70
2023-05-04T22:17:44.064Z,29.08
2023-05-04T22:20:10.534Z,29.00
2023-05-04T22:22:36.888Z,29.07
2023-05-04T22:25:03.312Z,29.17
2023-05-04T22:27:29.736Z,29.28
2023-05-04T22:29:56.134Z,29.15
2023-05-04T22:32:22.538Z,29.31
2023-05-04T22:34:48.918Z,29.46
2023-05-04T22:37:15.242Z,29.53
2023-05-04T22:39:41.550Z,29.34
2023-05-04T22:42:07.926Z,29.34
2023-05-04T22:44:34.239Z,29.30
2023-05-04T22:47:00.591Z,29.58
2023-05-04T22:49:26.964Z,29.32
2023-05-04T22:51:53.308Z,29.47
2023-05-04T22:54:19.625Z,29.36
2023-05-04T22:56:46.206Z,29.61
2023-05-04T22:59:12.567Z,29.80
2023-05-04T23:01:38.916Z,29.90
2023-05-04T23:04:05.289Z,29.79
2023-05-04T23:06:31.602Z,30.11
2023-05-04T23:08:57.968Z,29.98
2023-05-04T23:11:24.400Z,29.78
2023-05-04T23:13:50.734Z,30.24
2023-05-04T23:16:17.075Z,30.13
2023-05-04T23:18:43.445Z,30.30
2023-05-04T23:21:09.763Z,30.36
2023-05-04T23:23:36.104Z,30.26
2023-05-04T23:26:02.467Z,30.39
2023-05-04T23:28:28.788Z,30.35
2023-05-04T23:30:55.099Z,30.39
2023-05-04T23:33:21.456Z,30.65
2023-05-04T23:35:47.767Z,30.54
2023-05-04T23:38:14.084Z,30.32
2023-05-04T23:40:40.425Z,30.48
2023-05-04T23:43:06.743Z,30.52
2023-05-04T23:45:33.091Z,30.92
2023-05-04T23:47:59.556Z,30.85
2023-05-04T23:50:25.944Z,30.88
2023-05-04T23:52:52.279Z,30.70
2023-05-04T23:55:18.652Z,30.80
2023-05-04T23:57:44.947Z,30.98
